sensor_id;sensor_type;location;lat;lon;timestamp;temperature;humidity
30889;DHT22;51092;50.874;7.024;2023-05-27T00:00:18;10.90;92.20
30889;DHT22;51092;50.874;7.024;2023-05-27T00:01:20;10.90;92.50
30889;DHT22;51092;50.874;7.024;2023-05-27T00:02:22;10.90;92.70
30889;DHT22;51092;50.874;7.024;2023-05-27T00:03:24;10.90;92.70
30889;DHT22;51092;50.874;7.024;2023-05-27T00:04:26;10.90;92.90
30889;DHT22;51092;50.874;7.024;2023-05-27T00:05:29;10.90;93.30
30889;DHT22;51092;50.874;7.024;2023-05-27T00:06:32;10.90;93.50
30889;DHT22;51092;50.874;7.024;2023-05-27T00:07:33;10.80;94.00
30889;DHT22;51092;50.874;7.024;2023-05-27T00:08:36;10.80;93.90
30889;DHT22;51092;50.874;7.024;2023-05-27T00:09:37;10.80;93.90
30889;DHT22;51092;50.874;7.024;2023-05-27T00:10:40;10.80;93.80
30889;DHT22;51092;50.874;7.024;2023-05-27T00:11:42;10.80;94.20
30889;DHT22;51092;50.874;7.024;2023-05-27T00:12:44;10.70;94.30
30889;DHT22;51092;50.874;7.024;2023-05-27T00:13:46;10.70;94.40
30889;DHT22;51092;50.874;7.024;2023-05-27T00:14:48;10.70;94.60
30889;DHT22;51092;50.874;7.024;2023-05-27T00:15:50;10.80;93.90
30889;DHT22;51092;50.874;7.024;2023-05-27T00:16:52;10.80;93.70
30889;DHT22;51092;50.874;7.024;2023-05-27T00:17:54;10.80;93.70
30889;DHT22;51092;50.874;7.024;2023-05-27T00:18:57;10.90;93.40
30889;DHT22;51092;50.874;7.024;2023-05-27T00:19:58;10.80;93.60
30889;DHT22;51092;50.874;7.024;2023-05-27T00:21:08;10.80;93.50
30889;DHT22;51092;50.874;7.024;2023-05-27T00:22:10;10.80;93.80
30889;DHT22;51092;50.874;7.024;2023-05-27T00:23:12;10.70;94.00
30889;DHT22;51092;50.874;7.024;2023-05-27T00:24:14;10.70;94.20
30889;DHT22;51092;50.874;7.024;2023-05-27T00:25:17;10.70;94.20
30889;DHT22;51092;50.874;7.024;2023-05-27T00:26:21;10.70;94.30
30889;DHT22;51092;50.874;7.024;2023-05-27T00:27:24;10.60;94.60
30889;DHT22;51092;50.874;7.024;2023-05-27T00:28:25;10.60;94.80
30889;DHT22;51092;50.874;7.024;2023-05-27T00:29:30;10.60;95.20
30889;DHT22;51092;50.874;7.024;2023-05-27T00:30:32;10.60;95.50
30889;DHT22;51092;50.874;7.024;2023-05-27T00:31:34;10.50;96.20
30889;DHT22;51092;50.874;7.024;2023-05-27T00:32:36;10.60;95.90
30889;DHT22;51092;50.874;7.024;2023-05-27T00:33:38;10.60;95.90
30889;DHT22;51092;50.874;7.024;2023-05-27T00:34:40;10.50;95.80
30889;DHT22;51092;50.874;7.024;2023-05-27T00:35:43;10.50;96.40
30889;DHT22;51092;50.874;7.024;2023-05-27T00:36:45;10.50;95.90
30889;DHT22;51092;50.874;7.024;2023-05-27T00:37:48;10.40;96.40
30889;DHT22;51092;50.874;7.024;2023-05-27T00:38:50;10.40;96.40
30889;DHT22;51092;50.874;7.024;2023-05-27T00:39:52;10.40;96.60
30889;DHT22;51092;50.874;7.024;2023-05-27T00:40:53;10.40;96.50
30889;DHT22;51092;50.874;7.024;2023-05-27T00:41:56;10.40;97.00
30889;DHT22;51092;50.874;7.024;2023-05-27T00:42:59;10.40;97.00
30889;DHT22;51092;50.874;7.024;2023-05-27T00:44:01;10.40;97.50
30889;DHT22;51092;50.874;7.024;2023-05-27T00:45:06;10.30;97.50
30889;DHT22;51092;50.874;7.024;2023-05-27T00:46:08;10.40;97.20
30889;DHT22;51092;50.874;7.024;2023-05-27T00:47:11;10.40;97.50
30889;DHT22;51092;50.874;7.024;2023-05-27T00:48:13;10.30;97.30
30889;DHT22;51092;50.874;7.024;2023-05-27T00:49:16;10.30;97.00
30889;DHT22;51092;50.874;7.024;2023-05-27T00:50:18;10.30;97.10
30889;DHT22;51092;50.874;7.024;2023-05-27T00:51:23;10.20;98.10
30889;DHT22;51092;50.874;7.024;2023-05-27T00:52:28;10.20;98.70
30889;DHT22;51092;50.874;7.024;2023-05-27T00:53:36;10.20;99.40
30889;DHT22;51092;50.874;7.024;2023-05-27T00:54:40;10.10;99.90
30889;DHT22;51092;50.874;7.024;2023-05-27T00:55:43;10.10;99.90
30889;DHT22;51092;50.874;7.024;2023-05-27T00:56:44;10.10;99.90
30889;DHT22;51092;50.874;7.024;2023-05-27T00:57:48;10.10;99.90
30889;DHT22;51092;50.874;7.024;2023-05-27T00:58:50;10.20;99.90
30889;DHT22;51092;50.874;7.024;2023-05-27T00:59:53;10.10;99.90
30889;DHT22;51092;50.874;7.024;2023-05-27T01:00:55;10.10;99.70
30889;DHT22;51092;50.874;7.024;2023-05-27T01:01:58;10.10;99.90
30889;DHT22;51092;50.874;7.024;2023-05-27T01:02:59;10.10;99.70
30889;DHT22;51092;50.874;7.024;2023-05-27T01:04:03;10.10;99.90
30889;DHT22;51092;50.874;7.024;2023-05-27T01:05:05;10.00;99.90
30889;DHT22;51092;50.874;7.024;2023-05-27T01:06:14;10.00;99.90
30889;DHT22;51092;50.874;7.024;2023-05-27T01:07:22;10.00;99.90
30889;DHT22;51092;50.874;7.024;2023-05-27T01:08:31;10.00;99.90
30889;DHT22;51092;50.874;7.024;2023-05-27T01:09:38;10.00;99.90
30889;DHT22;51092;50.874;7.024;2023-05-27T01:10:45;10.00;99.90
30889;DHT22;51092;50.874;7.024;2023-05-27T01:11:51;10.00;99.90
30889;DHT22;51092;50.874;7.024;2023-05-27T01:13:00;9.90;99.90
30889;DHT22;51092;50.874;7.024;2023-05-27T01:14:08;9.90;99.90
30889;DHT22;51092;50.874;7.024;2023-05-27T01:15:12;9.90;99.90
30889;DHT22;51092;50.874;7.024;2023-05-27T01:16:16;9.90;99.90
30889;DHT22;51092;50.874;7.024;2023-05-27T01:17:19;9.90;99.90
30889;DHT22;51092;50.874;7.024;2023-05-27T01:18:22;9.90;99.90
30889;DHT22;51092;50.874;7.024;2023-05-27T01:19:29;9.90;99.90
30889;DHT22;51092;50.874;7.024;2023-05-27T01:20:32;9.90;99.90
30889;DHT22;51092;50.874;7.024;2023-05-27T01:21:37;9.80;99.90
30889;DHT22;51092;50.874;7.024;2023-05-27T01:22:42;9.90;99.90
30889;DHT22;51092;50.874;7.024;2023-05-27T01:23:48;9.90;99.90
30889;DHT22;51092;50.874;7.024;2023-05-27T01:24:50;9.90;99.90
30889;DHT22;51092;50.874;7.024;2023-05-27T01:25:52;9.90;99.90
30889;DHT22;51092;50.874;7.024;2023-05-27T01:26:54;9.90;99.90
30889;DHT22;51092;50.874;7.024;2023-05-27T01:27:57;9.80;99.90
30889;DHT22;51092;50.874;7.024;2023-05-27T01:28:59;9.80;99.90
30889;DHT22;51092;50.874;7.024;2023-05-27T01:30:01;9.80;99.90
30889;DHT22;51092;50.874;7.024;2023-05-27T01:31:13;9.80;99.90
30889;DHT22;51092;50.874;7.024;2023-05-27T01:32:18;9.80;99.90
30889;DHT22;51092;50.874;7.024;2023-05-27T01:33:25;9.80;99.90
30889;DHT22;51092;50.874;7.024;2023-05-27T01:34:34;9.80;99.90
30889;DHT22;51092;50.874;7.024;2023-05-27T01:35:41;9.80;99.90
30889;DHT22;51092;50.874;7.024;2023-05-27T01:36:47;9.70;99.90
30889;DHT22;51092;50.874;7.024;2023-05-27T01:37:54;9.80;99.90
30889;DHT22;51092;50.874;7.024;2023-05-27T01:38:58;9.80;99.90
30889;DHT22;51092;50.874;7.024;2023-05-27T01:40:02;9.70;99.90
30889;DHT22;51092;50.874;7.024;2023-05-27T01:41:07;9.70;99.90
30889;DHT22;51092;50.874;7.024;2023-05-27T01:42:11;9.70;99.90
30889;DHT22;51092;50.874;7.024;2023-05-27T01:43:14;9.70;99.90
30889;DHT22;51092;50.874;7.024;2023-05-27T01:44:17;9.70;99.90
30889;DHT22;51092;50.874;7.024;2023-05-27T01:45:19;9.70;99.90
30889;DHT22;51092;50.874;7.024;2023-05-27T01:46:22;9.70;99.90
30889;DHT22;51092;50.874;7.024;2023-05-27T01:47:24;9.70;99.90
30889;DHT22;51092;50.874;7.024;2023-05-27T01:48:26;9.60;99.90
30889;DHT22;51092;50.874;7.024;2023-05-27T01:49:29;9.70;99.90
30889;DHT22;51092;50.874;7.024;2023-05-27T01:50:31;9.70;99.90
30889;DHT22;51092;50.874;7.024;2023-05-27T01:51:34;9.70;99.90
30889;DHT22;51092;50.874;7.024;2023-05-27T01:52:37;9.70;99.90
30889;DHT22;51092;50.874;7.024;2023-05-27T01:53:40;9.70;99.90
30889;DHT22;51092;50.874;7.024;2023-05-27T01:54:43;9.70;99.90
30889;DHT22;51092;50.874;7.024;2023-05-27T01:55:44;9.60;99.90
30889;DHT22;51092;50.874;7.024;2023-05-27T01:56:47;9.60;99.90
30889;DHT22;51092;50.874;7.024;2023-05-27T01:57:49;9.60;99.90
30889;DHT22;51092;50.874;7.024;2023-05-27T01:58:51;9.60;99.90
30889;DHT22;51092;50.874;7.024;2023-05-27T01:59:53;9.60;99.90
30889;DHT22;51092;50.874;7.024;2023-05-27T02:00:55;9.60;99.90
30889;DHT22;51092;50.874;7.024;2023-05-27T02:01:57;9.50;99.90
30889;DHT22;51092;50.874;7.024;2023-05-27T02:02:59;9.50;99.90
30889;DHT22;51092;50.874;7.024;2023-05-27T02:04:01;9.50;99.90
30889;DHT22;51092;50.874;7.024;2023-05-27T02:05:05;9.50;99.90
30889;DHT22;51092;50.874;7.024;2023-05-27T02:06:06;9.50;99.90
30889;DHT22;51092;50.874;7.024;2023-05-27T02:07:09;9.50;99.90
30889;DHT22;51092;50.874;7.024;2023-05-27T02:08:10;9.40;99.90
30889;DHT22;51092;50.874;7.024;2023-05-27T02:09:15;9.40;99.90
30889;DHT22;51092;50.874;7.024;2023-05-27T02:10:16;9.40;99.90
30889;DHT22;51092;50.874;7.024;2023-05-27T02:11:19;9.40;99.90
30889;DHT22;51092;50.874;7.024;2023-05-27T02:12:20;9.40;99.90
30889;DHT22;51092;50.874;7.024;2023-05-27T02:13:23;9.40;99.90
30889;DHT22;51092;50.874;7.024;2023-05-27T02:14:24;9.40;99.90
30889;DHT22;51092;50.874;7.024;2023-05-27T02:15:27;9.40;99.90
30889;DHT22;51092;50.874;7.024;2023-05-27T02:16:28;9.30;99.90
30889;DHT22;51092;50.874;7.024;2023-05-27T02:17:31;9.30;99.90
30889;DHT22;51092;50.874;7.024;2023-05-27T02:18:34;9.30;99.90
30889;DHT22;51092;50.874;7.024;2023-05-27T02:19:37;9.30;99.90
30889;DHT22;51092;50.874;7.024;2023-05-27T02:20:38;9.30;99.90
30889;DHT22;51092;50.874;7.024;2023-05-27T02:21:41;9.30;99.90
30889;DHT22;51092;50.874;7.024;2023-05-27T02:22:42;9.30;99.90
30889;DHT22;51092;50.874;7.024;2023-05-27T02:23:45;9.30;99.90
30889;DHT22;51092;50.874;7.024;2023-05-27T02:24:48;9.20;99.90
30889;DHT22;51092;50.874;7.024;2023-05-27T02:25:50;9.20;99.90
30889;DHT22;51092;50.874;7.024;2023-05-27T02:26:52;9.20;99.90
30889;DHT22;51092;50.874;7.024;2023-05-27T02:27:54;9.20;99.90
30889;DHT22;51092;50.874;7.024;2023-05-27T02:28:56;9.20;99.90
30889;DHT22;51092;50.874;7.024;2023-05-27T02:29:58;9.10;99.90
30889;DHT22;51092;50.874;7.024;2023-05-27T02:31:00;9.10;99.90
30889;DHT22;51092;50.874;7.024;2023-05-27T02:32:03;9.10;99.90
30889;DHT22;51092;50.874;7.024;2023-05-27T02:33:04;9.10;99.90
30889;DHT22;51092;50.874;7.024;2023-05-27T02:34:07;9.10;99.90
30889;DHT22;51092;50.874;7.024;2023-05-27T02:35:10;9.00;99.90
30889;DHT22;51092;50.874;7.024;2023-05-27T02:36:12;9.00;99.90
30889;DHT22;51092;50.874;7.024;2023-05-27T02:37:13;9.00;99.90
30889;DHT22;51092;50.874;7.024;2023-05-27T02:38:16;9.00;99.90
30889;DHT22;51092;50.874;7.024;2023-05-27T02:39:18;9.00;99.90
30889;DHT22;51092;50.874;7.024;2023-05-27T02:40:25;9.00;99.90
30889;DHT22;51092;50.874;7.024;2023-05-27T02:41:27;9.00;99.90
30889;DHT22;51092;50.874;7.024;2023-05-27T02:42:30;8.90;99.90
30889;DHT22;51092;50.874;7.024;2023-05-27T02:43:31;8.90;99.90
30889;DHT22;51092;50.874;7.024;2023-05-27T02:44:33;8.90;99.90
30889;DHT22;51092;50.874;7.024;2023-05-27T02:45:35;8.80;99.90
30889;DHT22;51092;50.874;7.024;2023-05-27T02:46:38;8.80;99.90
30889;DHT22;51092;50.874;7.024;2023-05-27T02:47:39;8.80;99.90
30889;DHT22;51092;50.874;7.024;2023-05-27T02:48:42;8.80;99.90
30889;DHT22;51092;50.874;7.024;2023-05-27T02:49:43;8.80;99.90
30889;DHT22;51092;50.874;7.024;2023-05-27T02:50:46;8.80;99.90
30889;DHT22;51092;50.874;7.024;2023-05-27T02:51:48;8.80;99.90
30889;DHT22;51092;50.874;7.024;2023-05-27T02:52:50;8.80;99.90
30889;DHT22;51092;50.874;7.024;2023-05-27T02:53:52;8.80;99.90
30889;DHT22;51092;50.874;7.024;2023-05-27T02:54:54;8.80;99.90
30889;DHT22;51092;50.874;7.024;2023-05-27T02:55:57;8.70;99.90
30889;DHT22;51092;50.874;7.024;2023-05-27T02:57:00;8.80;99.90
30889;DHT22;51092;50.874;7.024;2023-05-27T02:58:02;8.70;99.90
30889;DHT22;51092;50.874;7.024;2023-05-27T02:59:05;8.70;99.90
30889;DHT22;51092;50.874;7.024;2023-05-27T03:00:08;8.70;99.90
30889;DHT22;51092;50.874;7.024;2023-05-27T03:01:12;8.70;99.90
30889;DHT22;51092;50.874;7.024;2023-05-27T03:02:14;8.70;99.90
30889;DHT22;51092;50.874;7.024;2023-05-27T03:03:16;8.70;99.90
30889;DHT22;51092;50.874;7.024;2023-05-27T03:04:18;8.60;99.90
30889;DHT22;51092;50.874;7.024;2023-05-27T03:05:22;8.60;99.90
30889;DHT22;51092;50.874;7.024;2023-05-27T03:06:24;8.60;99.90
30889;DHT22;51092;50.874;7.024;2023-05-27T03:07:27;8.60;99.90
30889;DHT22;51092;50.874;7.024;2023-05-27T03:08:30;8.60;99.90
30889;DHT22;51092;50.874;7.024;2023-05-27T03:09:33;8.60;99.90
30889;DHT22;51092;50.874;7.024;2023-05-27T03:10:34;8.60;99.90
30889;DHT22;51092;50.874;7.024;2023-05-27T03:11:39;8.60;99.90
30889;DHT22;51092;50.874;7.024;2023-05-27T03:12:40;8.60;99.90
30889;DHT22;51092;50.874;7.024;2023-05-27T03:13:42;8.50;99.90
30889;DHT22;51092;50.874;7.024;2023-05-27T03:14:44;8.50;99.90
30889;DHT22;51092;50.874;7.024;2023-05-27T03:15:46;8.60;99.90
30889;DHT22;51092;50.874;7.024;2023-05-27T03:16:48;8.50;99.90
30889;DHT22;51092;50.874;7.024;2023-05-27T03:17:50;8.50;99.90
30889;DHT22;51092;50.874;7.024;2023-05-27T03:18:53;8.50;99.90
30889;DHT22;51092;50.874;7.024;2023-05-27T03:19:55;8.50;99.90
30889;DHT22;51092;50.874;7.024;2023-05-27T03:20:57;8.50;99.90
30889;DHT22;51092;50.874;7.024;2023-05-27T03:21:59;8.50;99.90
30889;DHT22;51092;50.874;7.024;2023-05-27T03:23:01;8.50;99.90
30889;DHT22;51092;50.874;7.024;2023-05-27T03:24:04;8.50;99.90
30889;DHT22;51092;50.874;7.024;2023-05-27T03:25:06;8.50;99.90
30889;DHT22;51092;50.874;7.024;2023-05-27T03:26:09;8.50;99.90
30889;DHT22;51092;50.874;7.024;2023-05-27T03:27:11;8.40;99.90
30889;DHT22;51092;50.874;7.024;2023-05-27T03:28:14;8.40;99.90
30889;DHT22;51092;50.874;7.024;2023-05-27T03:29:17;8.40;99.90
30889;DHT22;51092;50.874;7.024;2023-05-27T03:30:20;8.40;99.90
30889;DHT22;51092;50.874;7.024;2023-05-27T03:31:22;8.40;99.90
30889;DHT22;51092;50.874;7.024;2023-05-27T03:32:24;8.40;99.90
30889;DHT22;51092;50.874;7.024;2023-05-27T03:33:26;8.40;99.90
30889;DHT22;51092;50.874;7.024;2023-05-27T03:34:28;8.30;99.90
30889;DHT22;51092;50.874;7.024;2023-05-27T03:35:30;8.30;99.90
30889;DHT22;51092;50.874;7.024;2023-05-27T03:36:32;8.30;99.90
30889;DHT22;51092;50.874;7.024;2023-05-27T03:37:36;8.30;99.90
30889;DHT22;51092;50.874;7.024;2023-05-27T03:38:38;8.30;99.90
30889;DHT22;51092;50.874;7.024;2023-05-27T03:39:40;8.30;99.90
30889;DHT22;51092;50.874;7.024;2023-05-27T03:40:41;8.30;99.90
30889;DHT22;51092;50.874;7.024;2023-05-27T03:41:44;8.30;99.90
30889;DHT22;51092;50.874;7.024;2023-05-27T03:42:47;8.30;99.90
30889;DHT22;51092;50.874;7.024;2023-05-27T03:43:50;8.30;99.90
30889;DHT22;51092;50.874;7.024;2023-05-27T03:44:51;8.30;99.90
30889;DHT22;51092;50.874;7.024;2023-05-27T03:45:54;8.30;99.90
30889;DHT22;51092;50.874;7.024;2023-05-27T03:46:55;8.30;99.90
30889;DHT22;51092;50.874;7.024;2023-05-27T03:47:58;8.30;99.90
30889;DHT22;51092;50.874;7.024;2023-05-27T03:48:59;8.30;99.90
30889;DHT22;51092;50.874;7.024;2023-05-27T03:50:02;8.30;99.90
30889;DHT22;51092;50.874;7.024;2023-05-27T03:51:04;8.30;99.90
30889;DHT22;51092;50.874;7.024;2023-05-27T03:52:06;8.30;99.90
30889;DHT22;51092;50.874;7.024;2023-05-27T03:53:08;8.30;99.90
30889;DHT22;51092;50.874;7.024;2023-05-27T03:54:10;8.30;99.90
30889;DHT22;51092;50.874;7.024;2023-05-27T03:55:12;8.30;99.90
30889;DHT22;51092;50.874;7.024;2023-05-27T03:56:14;8.30;99.90
30889;DHT22;51092;50.874;7.024;2023-05-27T03:57:16;8.40;99.90
30889;DHT22;51092;50.874;7.024;2023-05-27T03:58:20;8.40;99.90
30889;DHT22;51092;50.874;7.024;2023-05-27T03:59:22;8.40;99.90
30889;DHT22;51092;50.874;7.024;2023-05-27T04:00:24;8.40;99.90
30889;DHT22;51092;50.874;7.024;2023-05-27T04:01:26;8.40;99.90
30889;DHT22;51092;50.874;7.024;2023-05-27T04:02:29;8.40;99.90
30889;DHT22;51092;50.874;7.024;2023-05-27T04:03:31;8.40;99.90
30889;DHT22;51092;50.874;7.024;2023-05-27T04:04:33;8.50;99.90
30889;DHT22;51092;50.874;7.024;2023-05-27T04:05:35;8.50;99.90
30889;DHT22;51092;50.874;7.024;2023-05-27T04:06:37;8.50;99.90
30889;DHT22;51092;50.874;7.024;2023-05-27T04:07:39;8.50;99.90
30889;DHT22;51092;50.874;7.024;2023-05-27T04:08:42;8.50;99.90
30889;DHT22;51092;50.874;7.024;2023-05-27T04:09:43;8.50;99.90
30889;DHT22;51092;50.874;7.024;2023-05-27T04:10:45;8.50;99.90
30889;DHT22;51092;50.874;7.024;2023-05-27T04:11:46;8.50;99.90
30889;DHT22;51092;50.874;7.024;2023-05-27T04:12:48;8.50;99.90
30889;DHT22;51092;50.874;7.024;2023-05-27T04:13:50;8.50;99.90
30889;DHT22;51092;50.874;7.024;2023-05-27T04:14:53;8.60;99.90
30889;DHT22;51092;50.874;7.024;2023-05-27T04:15:54;8.60;99.90
30889;DHT22;51092;50.874;7.024;2023-05-27T04:16:58;8.60;99.90
30889;DHT22;51092;50.874;7.024;2023-05-27T04:17:59;8.60;99.90
30889;DHT22;51092;50.874;7.024;2023-05-27T04:19:03;8.60;99.90
30889;DHT22;51092;50.874;7.024;2023-05-27T04:20:07;8.60;99.90
30889;DHT22;51092;50.874;7.024;2023-05-27T04:21:14;8.70;99.90
30889;DHT22;51092;50.874;7.024;2023-05-27T04:22:16;8.70;99.90
30889;DHT22;51092;50.874;7.024;2023-05-27T04:23:18;8.70;99.90
30889;DHT22;51092;50.874;7.024;2023-05-27T04:24:21;8.70;99.90
30889;DHT22;51092;50.874;7.024;2023-05-27T04:25:22;8.70;99.90
30889;DHT22;51092;50.874;7.024;2023-05-27T04:26:25;8.70;99.90
30889;DHT22;51092;50.874;7.024;2023-05-27T04:27:32;8.80;99.90
30889;DHT22;51092;50.874;7.024;2023-05-27T04:28:35;8.80;99.90
30889;DHT22;51092;50.874;7.024;2023-05-27T04:29:38;8.80;99.90
30889;DHT22;51092;50.874;7.024;2023-05-27T04:30:40;8.80;99.90
30889;DHT22;51092;50.874;7.024;2023-05-27T04:31:42;8.80;99.90
30889;DHT22;51092;50.874;7.024;2023-05-27T04:32:45;8.80;99.90
30889;DHT22;51092;50.874;7.024;2023-05-27T04:33:47;8.80;99.90
30889;DHT22;51092;50.874;7.024;2023-05-27T04:34:49;8.90;99.90
30889;DHT22;51092;50.874;7.024;2023-05-27T04:35:51;8.90;99.90
30889;DHT22;51092;50.874;7.024;2023-05-27T04:36:54;8.90;99.90
30889;DHT22;51092;50.874;7.024;2023-05-27T04:37:57;9.00;99.90
30889;DHT22;51092;50.874;7.024;2023-05-27T04:39:02;8.90;99.90
30889;DHT22;51092;50.874;7.024;2023-05-27T04:40:06;9.00;99.90
30889;DHT22;51092;50.874;7.024;2023-05-27T04:41:09;9.00;99.90
30889;DHT22;51092;50.874;7.024;2023-05-27T04:42:11;9.00;99.90
30889;DHT22;51092;50.874;7.024;2023-05-27T04:43:14;9.00;99.90
30889;DHT22;51092;50.874;7.024;2023-05-27T04:44:16;9.10;99.90
30889;DHT22;51092;50.874;7.024;2023-05-27T04:45:19;9.10;99.90
30889;DHT22;51092;50.874;7.024;2023-05-27T04:46:21;9.10;99.90
30889;DHT22;51092;50.874;7.024;2023-05-27T04:47:25;9.10;99.90
30889;DHT22;51092;50.874;7.024;2023-05-27T04:48:26;9.10;99.90
30889;DHT22;51092;50.874;7.024;2023-05-27T04:49:29;9.20;99.90
30889;DHT22;51092;50.874;7.024;2023-05-27T04:50:30;9.20;99.90
30889;DHT22;51092;50.874;7.024;2023-05-27T04:51:31;9.20;99.90
30889;DHT22;51092;50.874;7.024;2023-05-27T04:52:36;9.20;99.90
30889;DHT22;51092;50.874;7.024;2023-05-27T04:53:39;9.20;99.90
30889;DHT22;51092;50.874;7.024;2023-05-27T04:54:41;9.20;99.90
30889;DHT22;51092;50.874;7.024;2023-05-27T04:55:43;9.30;99.90
30889;DHT22;51092;50.874;7.024;2023-05-27T04:56:46;9.20;99.90
30889;DHT22;51092;50.874;7.024;2023-05-27T04:57:47;9.30;99.90
30889;DHT22;51092;50.874;7.024;2023-05-27T04:58:49;9.30;99.90
30889;DHT22;51092;50.874;7.024;2023-05-27T04:59:51;9.40;99.90
30889;DHT22;51092;50.874;7.024;2023-05-27T05:01:18;9.40;99.90
30889;DHT22;51092;50.874;7.024;2023-05-27T05:02:23;9.40;99.90
30889;DHT22;51092;50.874;7.024;2023-05-27T05:03:26;9.40;99.90
30889;DHT22;51092;50.874;7.024;2023-05-27T05:04:38;9.50;99.90
30889;DHT22;51092;50.874;7.024;2023-05-27T05:05:40;9.50;99.90
30889;DHT22;51092;50.874;7.024;2023-05-27T05:06:42;9.60;99.90
30889;DHT22;51092;50.874;7.024;2023-05-27T05:07:44;9.60;99.40
30889;DHT22;51092;50.874;7.024;2023-05-27T05:08:46;9.60;99.30
30889;DHT22;51092;50.874;7.024;2023-05-27T05:09:49;9.60;99.50
30889;DHT22;51092;50.874;7.024;2023-05-27T05:10:51;9.60;99.40
30889;DHT22;51092;50.874;7.024;2023-05-27T05:11:53;9.60;99.90
30889;DHT22;51092;50.874;7.024;2023-05-27T05:12:56;9.70;99.20
30889;DHT22;51092;50.874;7.024;2023-05-27T05:13:57;9.70;98.60
30889;DHT22;51092;50.874;7.024;2023-05-27T05:15:00;9.70;98.60
30889;DHT22;51092;50.874;7.024;2023-05-27T05:16:01;9.80;98.10
30889;DHT22;51092;50.874;7.024;2023-05-27T05:17:05;9.80;98.30
30889;DHT22;51092;50.874;7.024;2023-05-27T05:18:06;9.80;98.40
30889;DHT22;51092;50.874;7.024;2023-05-27T05:19:09;9.90;97.60
30889;DHT22;51092;50.874;7.024;2023-05-27T05:20:12;9.90;98.20
30889;DHT22;51092;50.874;7.024;2023-05-27T05:21:16;9.90;97.10
30889;DHT22;51092;50.874;7.024;2023-05-27T05:22:18;9.90;97.20
30889;DHT22;51092;50.874;7.024;2023-05-27T05:23:20;9.90;97.40
30889;DHT22;51092;50.874;7.024;2023-05-27T05:24:23;9.90;97.40
30889;DHT22;51092;50.874;7.024;2023-05-27T05:25:25;9.90;98.00
30889;DHT22;51092;50.874;7.024;2023-05-27T05:26:27;10.00;97.80
30889;DHT22;51092;50.874;7.024;2023-05-27T05:27:29;10.00;97.60
30889;DHT22;51092;50.874;7.024;2023-05-27T05:28:32;10.00;97.30
30889;DHT22;51092;50.874;7.024;2023-05-27T05:29:34;10.00;96.30
30889;DHT22;51092;50.874;7.024;2023-05-27T05:30:37;10.00;96.30
30889;DHT22;51092;50.874;7.024;2023-05-27T05:31:40;10.10;96.70
30889;DHT22;51092;50.874;7.024;2023-05-27T05:32:47;10.20;95.50
30889;DHT22;51092;50.874;7.024;2023-05-27T05:33:49;10.20;95.30
30889;DHT22;51092;50.874;7.024;2023-05-27T05:34:51;10.30;95.10
30889;DHT22;51092;50.874;7.024;2023-05-27T05:35:54;10.30;95.30
30889;DHT22;51092;50.874;7.024;2023-05-27T05:36:56;10.40;94.70
30889;DHT22;51092;50.874;7.024;2023-05-27T05:37:59;10.40;94.30
30889;DHT22;51092;50.874;7.024;2023-05-27T05:39:00;10.50;94.60
30889;DHT22;51092;50.874;7.024;2023-05-27T05:40:05;10.50;94.20
30889;DHT22;51092;50.874;7.024;2023-05-27T05:41:07;10.50;94.00
30889;DHT22;51092;50.874;7.024;2023-05-27T05:42:09;10.60;94.30
30889;DHT22;51092;50.874;7.024;2023-05-27T05:43:11;10.60;94.10
30889;DHT22;51092;50.874;7.024;2023-05-27T05:44:14;10.70;93.30
30889;DHT22;51092;50.874;7.024;2023-05-27T05:45:16;10.80;93.20
30889;DHT22;51092;50.874;7.024;2023-05-27T05:46:18;10.80;93.00
30889;DHT22;51092;50.874;7.024;2023-05-27T05:47:20;10.90;92.50
30889;DHT22;51092;50.874;7.024;2023-05-27T05:48:24;11.00;92.20
30889;DHT22;51092;50.874;7.024;2023-05-27T05:49:25;11.00;91.90
30889;DHT22;51092;50.874;7.024;2023-05-27T05:50:28;11.10;91.80
30889;DHT22;51092;50.874;7.024;2023-05-27T05:51:29;11.10;91.60
30889;DHT22;51092;50.874;7.024;2023-05-27T05:52:32;11.20;91.40
30889;DHT22;51092;50.874;7.024;2023-05-27T05:53:34;11.20;91.10
30889;DHT22;51092;50.874;7.024;2023-05-27T05:54:36;11.30;90.80
30889;DHT22;51092;50.874;7.024;2023-05-27T05:55:38;11.30;90.90
30889;DHT22;51092;50.874;7.024;2023-05-27T05:56:40;11.30;90.80
30889;DHT22;51092;50.874;7.024;2023-05-27T05:57:42;11.30;90.30
30889;DHT22;51092;50.874;7.024;2023-05-27T05:58:44;11.30;90.60
30889;DHT22;51092;50.874;7.024;2023-05-27T05:59:46;11.30;90.30
30889;DHT22;51092;50.874;7.024;2023-05-27T06:00:48;11.30;90.30
30889;DHT22;51092;50.874;7.024;2023-05-27T06:01:50;11.30;90.10
30889;DHT22;51092;50.874;7.024;2023-05-27T06:02:52;11.30;90.10
30889;DHT22;51092;50.874;7.024;2023-05-27T06:03:55;11.40;90.10
30889;DHT22;51092;50.874;7.024;2023-05-27T06:04:57;11.50;89.80
30889;DHT22;51092;50.874;7.024;2023-05-27T06:05:59;11.70;89.00
30889;DHT22;51092;50.874;7.024;2023-05-27T06:07:01;11.90;87.80
30889;DHT22;51092;50.874;7.024;2023-05-27T06:08:03;12.00;86.20
30889;DHT22;51092;50.874;7.024;2023-05-27T06:09:05;12.10;85.90
30889;DHT22;51092;50.874;7.024;2023-05-27T06:10:08;12.20;85.40
30889;DHT22;51092;50.874;7.024;2023-05-27T06:11:11;12.30;85.10
30889;DHT22;51092;50.874;7.024;2023-05-27T06:12:12;12.40;84.20
30889;DHT22;51092;50.874;7.024;2023-05-27T06:13:15;12.40;83.90
30889;DHT22;51092;50.874;7.024;2023-05-27T06:14:16;12.30;84.00
30889;DHT22;51092;50.874;7.024;2023-05-27T06:15:18;12.40;84.20
30889;DHT22;51092;50.874;7.024;2023-05-27T06:16:19;12.30;84.10
30889;DHT22;51092;50.874;7.024;2023-05-27T06:17:22;12.40;83.80
30889;DHT22;51092;50.874;7.024;2023-05-27T06:18:23;12.40;83.80
30889;DHT22;51092;50.874;7.024;2023-05-27T06:19:27;12.40;83.40
30889;DHT22;51092;50.874;7.024;2023-05-27T06:20:28;12.40;83.10
30889;DHT22;51092;50.874;7.024;2023-05-27T06:21:31;12.40;83.20
30889;DHT22;51092;50.874;7.024;2023-05-27T06:22:33;12.40;83.50
30889;DHT22;51092;50.874;7.024;2023-05-27T06:23:36;12.50;83.00
30889;DHT22;51092;50.874;7.024;2023-05-27T06:24:37;12.60;82.70
30889;DHT22;51092;50.874;7.024;2023-05-27T06:25:40;12.60;81.80
30889;DHT22;51092;50.874;7.024;2023-05-27T06:26:41;12.70;81.90
30889;DHT22;51092;50.874;7.024;2023-05-27T06:27:43;12.80;81.50
30889;DHT22;51092;50.874;7.024;2023-05-27T06:28:45;12.80;81.60
30889;DHT22;51092;50.874;7.024;2023-05-27T06:29:48;12.90;80.90
30889;DHT22;51092;50.874;7.024;2023-05-27T06:30:49;12.90;80.70
30889;DHT22;51092;50.874;7.024;2023-05-27T06:31:52;12.90;80.40
30889;DHT22;51092;50.874;7.024;2023-05-27T06:32:54;12.80;80.70
30889;DHT22;51092;50.874;7.024;2023-05-27T06:33:56;12.70;81.30
30889;DHT22;51092;50.874;7.024;2023-05-27T06:34:59;12.80;81.10
30889;DHT22;51092;50.874;7.024;2023-05-27T06:36:02;12.80;81.30
30889;DHT22;51092;50.874;7.024;2023-05-27T06:37:04;12.90;80.70
30889;DHT22;51092;50.874;7.024;2023-05-27T06:38:07;12.90;80.10
30889;DHT22;51092;50.874;7.024;2023-05-27T06:39:08;12.90;80.60
30889;DHT22;51092;50.874;7.024;2023-05-27T06:40:12;12.90;80.40